sensor_id;sensor_type;location;lat;lon;timestamp;pressure;altitude;pressure_sealevel;temperature;humidity
44685;BME280;76140;45.696;8.652;2024-02-14T00:01:34;99015.19;;;3.71;33.27
44685;BME280;76140;45.696;8.652;2024-02-14T00:04:00;99016.43;;;3.20;33.51
44685;BME280;76140;45.696;8.652;2024-02-14T00:06:25;99019.19;;;2.95;33.75
44685;BME280;76140;45.696;8.652;2024-02-14T00:08:50;99018.68;;;2.88;33.59
44685;BME280;76140;45.696;8.652;2024-02-14T00:11:16;99022.64;;;2.96;33.71
44685;BME280;76140;45.696;8.652;2024-02-14T00:13:41;99026.30;;;3.04;33.74
44685;BME280;76140;45.696;8.652;2024-02-14T00:16:07;99025.67;;;3.02;34.12
44685;BME280;76140;45.696;8.652;2024-02-14T00:18:32;99027.30;;;2.65;34.61
44685;BME280;76140;45.696;8.652;2024-02-14T00:20:58;99033.32;;;3.04;33.83
44685;BME280;76140;45.696;8.652;2024-02-14T00:23:24;99034.29;;;3.18;33.93
44685;BME280;76140;45.696;8.652;2024-02-14T00:25:49;99034.12;;;3.22;33.25
44685;BME280;76140;45.696;8.652;2024-02-14T00:28:14;99040.81;;;3.39;33.74
44685;BME280;76140;45.696;8.652;2024-02-14T00:30:40;99043.57;;;2.65;34.29
44685;BME280;76140;45.696;8.652;2024-02-14T00:33:05;99047.14;;;3.20;34.38
44685;BME280;76140;45.696;8.652;2024-02-14T00:35:31;99055.88;;;3.12;34.34
44685;BME280;76140;45.696;8.652;2024-02-14T00:37:56;99059.72;;;3.10;34.07
44685;BME280;76140;45.696;8.652;2024-02-14T00:40:22;99059.96;;;3.14;33.78
44685;BME280;76140;45.696;8.652;2024-02-14T00:42:47;99059.55;;;3.13;33.96
44685;BME280;76140;45.696;8.652;2024-02-14T00:45:13;99063.32;;;2.90;33.71
44685;BME280;76140;45.696;8.652;2024-02-14T00:47:38;99062.71;;;3.16;34.00
44685;BME280;76140;45.696;8.652;2024-02-14T00:50:05;99063.51;;;2.93;34.18
44685;BME280;76140;45.696;8.652;2024-02-14T00:52:29;99068.15;;;3.03;34.09
44685;BME280;76140;45.696;8.652;2024-02-14T00:54:54;99069.72;;;3.11;34.64
44685;BME280;76140;45.696;8.652;2024-02-14T00:57:19;99067.01;;;2.91;33.73
44685;BME280;76140;45.696;8.652;2024-02-14T00:59:45;99067.04;;;3.10;33.76
44685;BME280;76140;45.696;8.652;2024-02-14T01:02:11;99070.91;;;3.28;33.32
44685;BME280;76140;45.696;8.652;2024-02-14T01:04:37;99077.47;;;2.79;34.05
44685;BME280;76140;45.696;8.652;2024-02-14T01:07:02;99084.04;;;3.11;34.06
44685;BME280;76140;45.696;8.652;2024-02-14T01:09:28;99085.83;;;2.93;34.27
44685;BME280;76140;45.696;8.652;2024-02-14T01:11:53;99087.06;;;2.88;34.51
44685;BME280;76140;45.696;8.652;2024-02-14T01:14:18;99083.07;;;2.67;33.92
44685;BME280;76140;45.696;8.652;2024-02-14T01:16:44;99080.44;;;2.73;33.75
44685;BME280;76140;45.696;8.652;2024-02-14T01:19:09;99082.64;;;2.99;33.94
44685;BME280;76140;45.696;8.652;2024-02-14T01:21:35;99080.69;;;3.26;33.96
44685;BME280;76140;45.696;8.652;2024-02-14T01:24:00;99081.37;;;2.80;34.26
44685;BME280;76140;45.696;8.652;2024-02-14T01:26:25;99085.12;;;2.86;33.78
44685;BME280;76140;45.696;8.652;2024-02-14T01:28:52;99090.75;;;2.89;33.60
44685;BME280;76140;45.696;8.652;2024-02-14T01:31:16;99094.71;;;2.26;34.45
44685;BME280;76140;45.696;8.652;2024-02-14T01:33:41;99091.68;;;2.73;34.19
44685;BME280;76140;45.696;8.652;2024-02-14T01:36:07;99094.11;;;2.56;33.81
44685;BME280;76140;45.696;8.652;2024-02-14T01:38:33;99095.81;;;2.58;33.92
44685;BME280;76140;45.696;8.652;2024-02-14T01:40:58;99094.64;;;2.16;34.25
44685;BME280;76140;45.696;8.652;2024-02-14T01:43:23;99089.84;;;2.49;33.81
44685;BME280;76140;45.696;8.652;2024-02-14T01:45:49;99096.64;;;2.55;33.92
44685;BME280;76140;45.696;8.652;2024-02-14T01:48:15;99097.35;;;2.61;34.40
44685;BME280;76140;45.696;8.652;2024-02-14T01:50:40;99101.01;;;2.62;34.35
44685;BME280;76140;45.696;8.652;2024-02-14T01:53:06;99104.92;;;2.31;34.62
44685;BME280;76140;45.696;8.652;2024-02-14T01:55:31;99107.46;;;2.77;34.31
44685;BME280;76140;45.696;8.652;2024-02-14T01:57:57;99108.39;;;2.84;34.65
44685;BME280;76140;45.696;8.652;2024-02-14T02:00:22;99108.84;;;2.60;35.34
44685;BME280;76140;45.696;8.652;2024-02-14T02:02:47;99109.20;;;2.21;35.04
44685;BME280;76140;45.696;8.652;2024-02-14T02:05:13;99109.93;;;2.32;34.66
44685;BME280;76140;45.696;8.652;2024-02-14T02:07:39;99106.33;;;2.14;34.55
44685;BME280;76140;45.696;8.652;2024-02-14T02:10:05;99107.52;;;2.11;34.85
44685;BME280;76140;45.696;8.652;2024-02-14T02:12:30;99108.40;;;2.17;34.89
44685;BME280;76140;45.696;8.652;2024-02-14T02:14:56;99113.07;;;2.26;35.07
44685;BME280;76140;45.696;8.652;2024-02-14T02:17:21;99115.51;;;2.25;35.14
44685;BME280;76140;45.696;8.652;2024-02-14T02:19:46;99116.80;;;2.20;35.05
44685;BME280;76140;45.696;8.652;2024-02-14T02:22:12;99109.81;;;2.08;35.20
44685;BME280;76140;45.696;8.652;2024-02-14T02:24:38;99106.82;;;1.60;35.21
44685;BME280;76140;45.696;8.652;2024-02-14T02:27:04;99109.93;;;1.53;35.80
44685;BME280;76140;45.696;8.652;2024-02-14T02:29:29;99110.31;;;1.16;36.10
44685;BME280;76140;45.696;8.652;2024-02-14T02:31:55;99108.27;;;1.58;36.04
44685;BME280;76140;45.696;8.652;2024-02-14T02:34:20;99111.51;;;1.28;36.03
44685;BME280;76140;45.696;8.652;2024-02-14T02:36:45;99116.11;;;1.36;35.57
44685;BME280;76140;45.696;8.652;2024-02-14T02:39:12;99114.59;;;1.37;35.66
44685;BME280;76140;45.696;8.652;2024-02-14T02:41:36;99115.45;;;1.07;36.07
44685;BME280;76140;45.696;8.652;2024-02-14T02:44:02;99114.10;;;1.33;35.95
44685;BME280;76140;45.696;8.652;2024-02-14T02:46:28;99112.42;;;1.57;35.54
44685;BME280;76140;45.696;8.652;2024-02-14T02:48:54;99106.80;;;1.66;35.54
44685;BME280;76140;45.696;8.652;2024-02-14T02:51:18;99103.82;;;1.67;35.56
44685;BME280;76140;45.696;8.652;2024-02-14T02:53:44;99104.87;;;1.68;35.32
44685;BME280;76140;45.696;8.652;2024-02-14T02:56:09;99107.74;;;1.89;35.28
44685;BME280;76140;45.696;8.652;2024-02-14T02:58:35;99108.26;;;1.70;35.34
44685;BME280;76140;45.696;8.652;2024-02-14T03:01:00;99108.99;;;1.81;35.32
44685;BME280;76140;45.696;8.652;2024-02-14T03:03:26;99105.62;;;1.73;35.74
44685;BME280;76140;45.696;8.652;2024-02-14T03:05:51;99102.41;;;1.38;36.16
44685;BME280;76140;45.696;8.652;2024-02-14T03:08:16;99097.91;;;0.93;36.76
44685;BME280;76140;45.696;8.652;2024-02-14T03:10:42;99097.16;;;1.13;36.67
44685;BME280;76140;45.696;8.652;2024-02-14T03:13:07;99104.31;;;0.92;36.75
44685;BME280;76140;45.696;8.652;2024-02-14T03:15:32;99106.86;;;1.06;36.70
44685;BME280;76140;45.696;8.652;2024-02-14T03:17:58;99110.00;;;0.66;36.79
44685;BME280;76140;45.696;8.652;2024-02-14T03:20:23;99112.49;;;0.68;36.70
44685;BME280;76140;45.696;8.652;2024-02-14T03:22:48;99114.27;;;1.21;36.94
44685;BME280;76140;45.696;8.652;2024-02-14T03:25:16;99117.80;;;0.88;36.31
44685;BME280;76140;45.696;8.652;2024-02-14T03:27:39;99126.57;;;0.66;36.87
44685;BME280;76140;45.696;8.652;2024-02-14T03:30:05;99126.05;;;0.44;36.91
44685;BME280;76140;45.696;8.652;2024-02-14T03:32:29;99130.40;;;0.99;36.90
44685;BME280;76140;45.696;8.652;2024-02-14T03:34:54;99140.25;;;0.41;37.40
44685;BME280;76140;45.696;8.652;2024-02-14T03:37:20;99146.58;;;0.13;37.20
44685;BME280;76140;45.696;8.652;2024-02-14T03:39:45;99146.94;;;0.57;36.87
44685;BME280;76140;45.696;8.652;2024-02-14T03:42:10;99145.71;;;0.66;37.13
44685;BME280;76140;45.696;8.652;2024-02-14T03:44:35;99145.20;;;0.94;37.16
44685;BME280;76140;45.696;8.652;2024-02-14T03:47:01;99144.30;;;0.74;37.52
44685;BME280;76140;45.696;8.652;2024-02-14T03:49:26;99147.50;;;0.23;37.53
44685;BME280;76140;45.696;8.652;2024-02-14T03:51:51;99149.25;;;0.01;38.10
44685;BME280;76140;45.696;8.652;2024-02-14T03:54:16;99149.06;;;-0.11;38.07
44685;BME280;76140;45.696;8.652;2024-02-14T03:56:41;99150.07;;;-1.23;39.08
44685;BME280;76140;45.696;8.652;2024-02-14T03:59:06;99144.17;;;-0.21;38.70
44685;BME280;76140;45.696;8.652;2024-02-14T04:01:32;99137.77;;;0.49;37.43
44685;BME280;76140;45.696;8.652;2024-02-14T04:03:58;99137.82;;;-0.16;37.85
44685;BME280;76140;45.696;8.652;2024-02-14T04:06:23;99144.30;;;0.61;37.50
44685;BME280;76140;45.696;8.652;2024-02-14T04:08:48;99145.79;;;0.97;36.83
44685;BME280;76140;45.696;8.652;2024-02-14T04:11:13;99154.19;;;0.78;36.98
44685;BME280;76140;45.696;8.652;2024-02-14T04:13:39;99157.92;;;0.68;36.89
44685;BME280;76140;45.696;8.652;2024-02-14T04:16:05;99160.97;;;-0.14;38.67
44685;BME280;76140;45.696;8.652;2024-02-14T04:18:29;99159.90;;;0.62;37.22
44685;BME280;76140;45.696;8.652;2024-02-14T04:20:55;99156.97;;;0.42;37.06
44685;BME280;76140;45.696;8.652;2024-02-14T04:23:20;99155.22;;;0.67;37.02
44685;BME280;76140;45.696;8.652;2024-02-14T04:25:45;99154.87;;;0.06;37.85
44685;BME280;76140;45.696;8.652;2024-02-14T04:28:10;99156.99;;;0.35;37.25
44685;BME280;76140;45.696;8.652;2024-02-14T04:30:36;99157.95;;;0.27;37.04
44685;BME280;76140;45.696;8.652;2024-02-14T04:33:01;99161.52;;;0.43;37.16
44685;BME280;76140;45.696;8.652;2024-02-14T04:35:26;99166.48;;;0.69;36.77
44685;BME280;76140;45.696;8.652;2024-02-14T04:37:51;99171.43;;;0.62;37.13
44685;BME280;76140;45.696;8.652;2024-02-14T04:40:17;99173.79;;;0.58;37.07
44685;BME280;76140;45.696;8.652;2024-02-14T04:42:42;99170.78;;;0.57;36.70
44685;BME280;76140;45.696;8.652;2024-02-14T04:45:08;99170.00;;;0.40;36.76
44685;BME280;76140;45.696;8.652;2024-02-14T04:47:33;99172.67;;;0.38;37.13
44685;BME280;76140;45.696;8.652;2024-02-14T04:49:58;99168.66;;;-0.27;37.87
44685;BME280;76140;45.696;8.652;2024-02-14T04:52:23;99165.95;;;-0.12;37.81
44685;BME280;76140;45.696;8.652;2024-02-14T04:54:49;99168.85;;;0.16;37.04
44685;BME280;76140;45.696;8.652;2024-02-14T04:57:14;99172.35;;;0.49;36.85
44685;BME280;76140;45.696;8.652;2024-02-14T04:59:39;99170.84;;;0.42;37.04
44685;BME280;76140;45.696;8.652;2024-02-14T05:02:05;99168.09;;;0.40;37.29
44685;BME280;76140;45.696;8.652;2024-02-14T05:04:30;99162.72;;;0.03;37.75
44685;BME280;76140;45.696;8.652;2024-02-14T05:06:55;99162.00;;;-1.32;38.58
44685;BME280;76140;45.696;8.652;2024-02-14T05:09:20;99165.24;;;0.36;37.35
44685;BME280;76140;45.696;8.652;2024-02-14T05:11:46;99168.04;;;0.27;37.34
44685;BME280;76140;45.696;8.652;2024-02-14T05:14:11;99169.91;;;0.34;37.65
44685;BME280;76140;45.696;8.652;2024-02-14T05:16:36;99166.28;;;0.43;37.48
44685;BME280;76140;45.696;8.652;2024-02-14T05:19:02;99173.45;;;0.42;37.31
44685;BME280;76140;45.696;8.652;2024-02-14T05:21:27;99178.40;;;-0.00;37.71
44685;BME280;76140;45.696;8.652;2024-02-14T05:23:52;99178.09;;;0.14;37.72
44685;BME280;76140;45.696;8.652;2024-02-14T05:26:18;99173.82;;;-0.42;38.23
44685;BME280;76140;45.696;8.652;2024-02-14T05:28:43;99174.88;;;-0.03;37.67
44685;BME280;76140;45.696;8.652;2024-02-14T05:31:08;99180.23;;;-0.09;38.66
44685;BME280;76140;45.696;8.652;2024-02-14T05:33:33;99181.70;;;-0.14;37.90
44685;BME280;76140;45.696;8.652;2024-02-14T05:35:59;99180.03;;;-0.58;38.13
44685;BME280;76140;45.696;8.652;2024-02-14T05:38:24;99179.12;;;-0.24;38.26
44685;BME280;76140;45.696;8.652;2024-02-14T05:40:49;99184.28;;;-0.74;38.75
44685;BME280;76140;45.696;8.652;2024-02-14T05:43:15;99187.70;;;-0.34;38.82
44685;BME280;76140;45.696;8.652;2024-02-14T05:45:40;99186.39;;;-0.33;38.86
44685;BME280;76140;45.696;8.652;2024-02-14T05:48:06;99187.89;;;-0.80;39.59
44685;BME280;76140;45.696;8.652;2024-02-14T05:50:32;99188.81;;;-0.41;38.42
44685;BME280;76140;45.696;8.652;2024-02-14T05:52:57;99193.76;;;-0.19;38.26
44685;BME280;76140;45.696;8.652;2024-02-14T05:55:22;99192.38;;;-0.16;38.12
44685;BME280;76140;45.696;8.652;2024-02-14T05:57:47;99194.25;;;-0.07;38.28
44685;BME280;76140;45.696;8.652;2024-02-14T06:00:13;99195.92;;;-0.27;38.37
44685;BME280;76140;45.696;8.652;2024-02-14T06:02:38;99199.11;;;-0.18;38.19
44685;BME280;76140;45.696;8.652;2024-02-14T06:05:04;99202.53;;;-0.13;37.89
44685;BME280;76140;45.696;8.652;2024-02-14T06:07:29;99204.56;;;0.08;37.78
44685;BME280;76140;45.696;8.652;2024-02-14T06:09:54;99207.67;;;-0.27;38.06
44685;BME280;76140;45.696;8.652;2024-02-14T06:12:19;99215.20;;;-0.10;37.85
44685;BME280;76140;45.696;8.652;2024-02-14T06:14:48;99220.22;;;-0.22;38.11
44685;BME280;76140;45.696;8.652;2024-02-14T06:17:10;99221.70;;;-0.43;38.13
44685;BME280;76140;45.696;8.652;2024-02-14T06:19:35;99227.39;;;-0.21;37.73
44685;BME280;76140;45.696;8.652;2024-02-14T06:22:01;99233.83;;;-0.43;38.15
44685;BME280;76140;45.696;8.652;2024-02-14T06:24:26;99237.08;;;-0.59;38.26
44685;BME280;76140;45.696;8.652;2024-02-14T06:26:51;99239.18;;;-0.33;37.90
44685;BME280;76140;45.696;8.652;2024-02-14T06:29:16;99238.40;;;-0.18;38.03
44685;BME280;76140;45.696;8.652;2024-02-14T06:31:42;99237.64;;;-0.04;37.72
44685;BME280;76140;45.696;8.652;2024-02-14T06:34:07;99238.26;;;0.05;37.44
44685;BME280;76140;45.696;8.652;2024-02-14T06:36:33;99239.67;;;-0.32;38.36
44685;BME280;76140;45.696;8.652;2024-02-14T06:38:58;99237.08;;;-0.15;38.07
44685;BME280;76140;45.696;8.652;2024-02-14T06:41:23;99235.65;;;-0.25;37.86
44685;BME280;76140;45.696;8.652;2024-02-14T06:43:48;99237.35;;;-0.62;38.05
44685;BME280;76140;45.696;8.652;2024-02-14T06:46:14;99246.47;;;-0.20;37.88
44685;BME280;76140;45.696;8.652;2024-02-14T06:48:39;99248.69;;;-0.22;38.34
44685;BME280;76140;45.696;8.652;2024-02-14T06:51:06;99249.89;;;0.26;37.99
44685;BME280;76140;45.696;8.652;2024-02-14T06:53:29;99256.04;;;-0.08;37.73
44685;BME280;76140;45.696;8.652;2024-02-14T06:55:55;99263.01;;;0.08;37.44
44685;BME280;76140;45.696;8.652;2024-02-14T06:58:20;99264.23;;;0.29;37.63
44685;BME280;76140;45.696;8.652;2024-02-14T07:00:46;99263.03;;;0.59;37.18
44685;BME280;76140;45.696;8.652;2024-02-14T07:03:11;99270.18;;;0.66;36.83
44685;BME280;76140;45.696;8.652;2024-02-14T07:05:36;99272.33;;;0.18;37.51
44685;BME280;76140;45.696;8.652;2024-02-14T07:08:02;99271.83;;;0.43;37.37
44685;BME280;76140;45.696;8.652;2024-02-14T07:10:27;99273.59;;;-0.52;38.58
44685;BME280;76140;45.696;8.652;2024-02-14T07:12:52;99281.50;;;0.59;37.21
44685;BME280;76140;45.696;8.652;2024-02-14T07:15:18;99287.44;;;-0.01;37.72
44685;BME280;76140;45.696;8.652;2024-02-14T07:17:43;99287.54;;;0.60;36.79
44685;BME280;76140;45.696;8.652;2024-02-14T07:20:09;99291.93;;;0.43;37.13
44685;BME280;76140;45.696;8.652;2024-02-14T07:22:33;99297.97;;;0.83;36.77
44685;BME280;76140;45.696;8.652;2024-02-14T07:24:58;99303.22;;;0.47;37.00
44685;BME280;76140;45.696;8.652;2024-02-14T07:27:24;99308.44;;;-0.59;38.56
44685;BME280;76140;45.696;8.652;2024-02-14T07:29:49;99310.80;;;0.18;37.65
44685;BME280;76140;45.696;8.652;2024-02-14T07:32:14;99312.49;;;1.03;36.74
44685;BME280;76140;45.696;8.652;2024-02-14T07:34:39;99310.24;;;1.60;35.91
44685;BME280;76140;45.696;8.652;2024-02-14T07:37:04;99306.66;;;1.67;36.07
44685;BME280;76140;45.696;8.652;2024-02-14T07:39:30;99306.19;;;1.99;35.69
44685;BME280;76140;45.696;8.652;2024-02-14T07:41:55;99303.98;;;2.51;34.04
44685;BME280;76140;45.696;8.652;2024-02-14T07:44:20;99301.13;;;4.15;31.97
44685;BME280;76140;45.696;8.652;2024-02-14T07:46:46;99301.11;;;6.52;29.58
44685;BME280;76140;45.696;8.652;2024-02-14T07:49:11;99298.40;;;8.21;27.29
44685;BME280;76140;45.696;8.652;2024-02-14T07:51:37;99294.45;;;9.96;25.53
44685;BME280;76140;45.696;8.652;2024-02-14T07:54:03;99289.14;;;11.00;23.67
44685;BME280;76140;45.696;8.652;2024-02-14T07:56:28;99294.59;;;12.64;23.02
44685;BME280;76140;45.696;8.652;2024-02-14T07:58:54;99294.65;;;13.22;22.14
44685;BME280;76140;45.696;8.652;2024-02-14T08:01:19;99292.05;;;13.47;21.94
44685;BME280;76140;45.696;8.652;2024-02-14T08:03:44;99285.78;;;12.64;21.72
44685;BME280;76140;45.696;8.652;2024-02-14T08:06:09;99278.68;;;13.85;21.16
44685;BME280;76140;45.696;8.652;2024-02-14T08:08:35;99281.69;;;14.28;20.93
44685;BME280;76140;45.696;8.652;2024-02-14T08:11:00;99287.45;;;13.83;21.30
44685;BME280;76140;45.696;8.652;2024-02-14T08:13:25;99291.60;;;13.47;21.36
44685;BME280;76140;45.696;8.652;2024-02-14T08:15:50;99293.20;;;14.41;20.89
44685;BME280;76140;45.696;8.652;2024-02-14T08:18:15;99296.24;;;13.85;21.00
44685;BME280;76140;45.696;8.652;2024-02-14T08:20:41;99300.98;;;14.24;20.70
44685;BME280;76140;45.696;8.652;2024-02-14T08:23:06;99306.71;;;14.77;20.09
44685;BME280;76140;45.696;8.652;2024-02-14T08:25:31;99302.19;;;14.34;20.56
44685;BME280;76140;45.696;8.652;2024-02-14T08:27:56;99294.37;;;14.14;21.27
44685;BME280;76140;45.696;8.652;2024-02-14T08:30:22;99296.14;;;12.23;21.86
44685;BME280;76140;45.696;8.652;2024-02-14T08:32:48;99293.75;;;11.78;22.90
44685;BME280;76140;45.696;8.652;2024-02-14T08:35:13;99291.92;;;12.20;22.06
44685;BME280;76140;45.696;8.652;2024-02-14T08:37:38;99289.08;;;12.64;21.90
44685;BME280;76140;45.696;8.652;2024-02-14T08:40:05;99298.17;;;12.60;22.08
44685;BME280;76140;45.696;8.652;2024-02-14T08:42:29;99295.31;;;11.94;22.89
44685;BME280;76140;45.696;8.652;2024-02-14T08:44:54;99293.00;;;12.40;22.78
44685;BME280;76140;45.696;8.652;2024-02-14T08:47:19;99281.94;;;11.76;22.88
44685;BME280;76140;45.696;8.652;2024-02-14T08:49:45;99284.40;;;10.26;24.50
44685;BME280;76140;45.696;8.652;2024-02-14T08:52:11;99289.44;;;8.93;25.62
44685;BME280;76140;45.696;8.652;2024-02-14T08:54:36;99292.58;;;8.49;26.41
44685;BME280;76140;45.696;8.652;2024-02-14T08:57:01;99298.81;;;8.44;26.15
44685;BME280;76140;45.696;8.652;2024-02-14T08:59:26;99307.59;;;8.62;26.27
44685;BME280;76140;45.696;8.652;2024-02-14T09:01:52;99309.26;;;7.88;27.43
44685;BME280;76140;45.696;8.652;2024-02-14T09:04:18;99301.74;;;7.63;27.76
44685;BME280;76140;45.696;8.652;2024-02-14T09:06:43;99300.83;;;7.45;27.69
44685;BME280;76140;45.696;8.652;2024-02-14T09:09:09;99303.54;;;7.33;27.79
44685;BME280;76140;45.696;8.652;2024-02-14T09:11:34;99301.50;;;7.29;28.54
44685;BME280;76140;45.696;8.652;2024-02-14T09:14:00;99301.43;;;7.20;28.38
44685;BME280;76140;45.696;8.652;2024-02-14T09:16:25;99299.65;;;6.87;28.48
44685;BME280;76140;45.696;8.652;2024-02-14T09:18:50;99302.33;;;6.53;28.32
44685;BME280;76140;45.696;8.652;2024-02-14T09:21:16;99304.25;;;6.50;28.69
44685;BME280;76140;45.696;8.652;2024-02-14T09:23:41;99308.15;;;6.12;28.82
44685;BME280;76140;45.696;8.652;2024-02-14T09:26:07;99303.90;;;6.27;28.97
44685;BME280;76140;45.696;8.652;2024-02-14T09:28:32;99307.06;;;6.26;28.96
44685;BME280;76140;45.696;8.652;2024-02-14T09:30:57;99312.83;;;6.59;28.95
44685;BME280;76140;45.696;8.652;2024-02-14T09:33:22;99310.24;;;6.63;29.44
44685;BME280;76140;45.696;8.652;2024-02-14T09:35:48;99307.86;;;6.75;28.95
44685;BME280;76140;45.696;8.652;2024-02-14T09:38:13;99304.36;;;6.67;28.69
44685;BME280;76140;45.696;8.652;2024-02-14T09:40:39;99300.72;;;6.25;28.93
44685;BME280;76140;45.696;8.652;2024-02-14T09:43:08;99293.87;;;6.48;29.00
44685;BME280;76140;45.696;8.652;2024-02-14T09:45:30;99298.03;;;6.25;28.98
44685;BME280;76140;45.696;8.652;2024-02-14T09:47:55;99301.36;;;6.79;29.18
44685;BME280;76140;45.696;8.652;2024-02-14T09:50:20;99306.75;;;6.15;28.90
44685;BME280;76140;45.696;8.652;2024-02-14T09:52:47;99304.70;;;6.52;29.35
44685;BME280;76140;45.696;8.652;2024-02-14T09:55:11;99305.97;;;6.81;28.62
44685;BME280;76140;45.696;8.652;2024-02-14T09:57:40;99304.56;;;6.78;28.99
44685;BME280;76140;45.696;8.652;2024-02-14T10:00:02;99307.64;;;7.46;28.01
44685;BME280;76140;45.696;8.652;2024-02-14T10:02:27;99311.18;;;8.81;27.24
44685;BME280;76140;45.696;8.652;2024-02-14T10:04:53;99311.03;;;10.84;24.94
44685;BME280;76140;45.696;8.652;2024-02-14T10:07:19;99302.27;;;13.53;22.41
44685;BME280;76140;45.696;8.652;2024-02-14T10:09:43;99290.71;;;15.84;19.95
44685;BME280;76140;45.696;8.652;2024-02-14T10:12:09;99286.16;;;16.66;19.68
44685;BME280;76140;45.696;8.652;2024-02-14T10:14:34;99288.59;;;17.96;19.09
44685;BME280;76140;45.696;8.652;2024-02-14T10:16:59;99285.85;;;18.41;18.56
44685;BME280;76140;45.696;8.652;2024-02-14T10:19:24;99286.79;;;19.40;17.84
44685;BME280;76140;45.696;8.652;2024-02-14T10:21:57;99286.16;;;19.77;17.32
44685;BME280;76140;45.696;8.652;2024-02-14T10:24:15;99285.37;;;19.79;17.47
44685;BME280;76140;45.696;8.652;2024-02-14T10:26:40;99280.97;;;20.35;17.26
44685;BME280;76140;45.696;8.652;2024-02-14T10:29:06;99282.48;;;19.43;18.23
44685;BME280;76140;45.696;8.652;2024-02-14T10:31:31;99281.24;;;19.30;18.25
44685;BME280;76140;45.696;8.652;2024-02-14T10:33:56;99276.61;;;20.23;17.48
44685;BME280;76140;45.696;8.652;2024-02-14T10:36:22;99272.35;;;20.50;17.26
44685;BME280;76140;45.696;8.652;2024-02-14T10:38:46;99269.52;;;20.07;16.85
44685;BME280;76140;45.696;8.652;2024-02-14T10:41:13;99269.32;;;20.23;17.37
44685;BME280;76140;45.696;8.652;2024-02-14T10:43:40;99272.80;;;20.01;17.50
44685;BME280;76140;45.696;8.652;2024-02-14T10:46:10;99287.87;;;19.24;17.23
44685;BME280;76140;45.696;8.652;2024-02-14T10:48:28;99293.58;;;19.05;17.64
44685;BME280;76140;45.696;8.652;2024-02-14T10:50:54;99291.48;;;18.42;17.93
44685;BME280;76140;45.696;8.652;2024-02-14T10:53:18;99291.43;;;16.23;18.99
44685;BME280;76140;45.696;8.652;2024-02-14T10:55:46;99293.88;;;16.19;19.30
44685;BME280;76140;45.696;8.652;2024-02-14T10:58:10;99294.99;;;16.74;19.68
44685;BME280;76140;45.696;8.652;2024-02-14T11:00:34;99292.80;;;16.18;19.21
44685;BME280;76140;45.696;8.652;2024-02-14T11:03:00;99280.98;;;16.02;19.58
44685;BME280;76140;45.696;8.652;2024-02-14T11:05:25;99276.74;;;15.80;19.52
44685;BME280;76140;45.696;8.652;2024-02-14T11:07:50;99270.81;;;15.99;19.60
44685;BME280;76140;45.696;8.652;2024-02-14T11:10:16;99264.05;;;14.07;20.20
44685;BME280;76140;45.696;8.652;2024-02-14T11:12:40;99262.73;;;14.64;19.78
44685;BME280;76140;45.696;8.652;2024-02-14T11:15:16;99262.87;;;15.02;20.08
44685;BME280;76140;45.696;8.652;2024-02-14T11:17:30;99267.73;;;14.51;20.55
44685;BME280;76140;45.696;8.652;2024-02-14T11:19:55;99264.28;;;14.89;19.81
44685;BME280;76140;45.696;8.652;2024-02-14T11:22:21;99252.98;;;15.35;19.07
44685;BME280;76140;45.696;8.652;2024-02-14T11:24:46;99246.59;;;14.90;19.27
44685;BME280;76140;45.696;8.652;2024-02-14T11:27:11;99241.23;;;14.29;19.91
44685;BME280;76140;45.696;8.652;2024-02-14T11:29:35;99237.88;;;14.26;20.42
44685;BME280;76140;45.696;8.652;2024-02-14T11:32:01;99238.45;;;14.86;19.72
44685;BME280;76140;45.696;8.652;2024-02-14T11:34:26;99238.09;;;14.25;20.28
44685;BME280;76140;45.696;8.652;2024-02-14T11:36:51;99237.38;;;14.20;19.75
44685;BME280;76140;45.696;8.652;2024-02-14T11:39:16;99241.05;;;14.80;19.94
44685;BME280;76140;45.696;8.652;2024-02-14T11:41:41;99240.16;;;13.51;20.29
44685;BME280;76140;45.696;8.652;2024-02-14T11:44:06;99235.74;;;13.22;19.86
44685;BME280;76140;45.696;8.652;2024-02-14T11:46:32;99245.91;;;12.76;20.52
44685;BME280;76140;45.696;8.652;2024-02-14T11:48:57;99247.58;;;13.42;20.20
44685;BME280;76140;45.696;8.652;2024-02-14T11:51:22;99248.63;;;13.09;20.31
44685;BME280;76140;45.696;8.652;2024-02-14T11:53:47;99244.97;;;12.25;20.75
44685;BME280;76140;45.696;8.652;2024-02-14T11:56:12;99237.22;;;12.94;19.80
44685;BME280;76140;45.696;8.652;2024-02-14T11:58:37;99223.09;;;13.83;19.64
44685;BME280;76140;45.696;8.652;2024-02-14T12:01:03;99221.77;;;14.18;19.68
44685;BME280;76140;45.696;8.652;2024-02-14T12:03:27;99225.81;;;11.67;20.51
44685;BME280;76140;45.696;8.652;2024-02-14T12:05:53;99215.70;;;13.60;19.85
44685;BME280;76140;45.696;8.652;2024-02-14T12:08:18;99221.42;;;12.22;20.22
44685;BME280;76140;45.696;8.652;2024-02-14T12:10:43;99223.58;;;12.44;20.20
44685;BME280;76140;45.696;8.652;2024-02-14T12:13:09;99222.48;;;11.53;20.16
44685;BME280;76140;45.696;8.652;2024-02-14T12:15:37;99210.56;;;13.52;19.06
44685;BME280;76140;45.696;8.652;2024-02-14T12:17:58;99209.05;;;13.88;19.64
44685;BME280;76140;45.696;8.652;2024-02-14T12:20:23;99216.47;;;11.28;20.58
44685;BME280;76140;45.696;8.652;2024-02-14T12:22:50;99210.53;;;13.32;20.53
44685;BME280;76140;45.696;8.652;2024-02-14T12:25:15;99212.46;;;12.30;20.84
44685;BME280;76140;45.696;8.652;2024-02-14T12:27:39;99209.54;;;12.19;20.19
44685;BME280;76140;45.696;8.652;2024-02-14T12:30:06;99206.59;;;12.37;21.39
44685;BME280;76140;45.696;8.652;2024-02-14T12:32:30;99201.83;;;12.59;21.53
44685;BME280;76140;45.696;8.652;2024-02-14T12:34:55;99204.70;;;12.74;20.70
44685;BME280;76140;45.696;8.652;2024-02-14T12:37:20;99204.98;;;11.37;21.08
44685;BME280;76140;45.696;8.652;2024-02-14T12:39:46;99199.55;;;11.76;21.61
44685;BME280;76140;45.696;8.652;2024-02-14T12:42:11;99201.97;;;10.97;22.48
44685;BME280;76140;45.696;8.652;2024-02-14T12:44:36;99204.90;;;10.24;23.23
44685;BME280;76140;45.696;8.652;2024-02-14T12:47:01;99200.48;;;11.05;22.95
44685;BME280;76140;45.696;8.652;2024-02-14T12:49:27;99198.45;;;11.17;22.46
44685;BME280;76140;45.696;8.652;2024-02-14T12:51:52;99205.88;;;11.69;23.04
44685;BME280;76140;45.696;8.652;2024-02-14T12:54:17;99213.25;;;10.50;22.83